Главная страница
METAR-TAF:

METAR-TAF

Аэропорты :

Внуково

Москва-Внуково, Россия

широта: 55-39N, долгота: 037-16E, высота над уровнем моря: 203 м

Текущие метеонаблюдения

Эта сводка был подготовлена 30 минут назад, в 23:00 UTC
Ветер 8 Узел от западный
Температура 10°C
Влажность 87%
Давление 1011 hPa
Видимость 10 км и более
Нет облачности ниже 1500 м, и нет кучево-дождевой облачности

METAR: UUWW 212300Z 27004MPS CAVOK 10/08 Q1011 R24/000070 NOSIG

Время: 02:30 (23:30 UTC)

Прогноз

Эта сводка был подготовлена 3 часа и 40 минут назад, в 19:50 UTC
Прогноз действительный с 21-го 21 UTC до 22-го 21 UTC
Ветер 10 Узел от западный
Видимость 10 км и более
Отдельные облака на высоте 2000 фута
временами
С 22-го 06 UTC до 22-го 12 UTC
Ветер 19 Узел от северо-западный с порывами до 29 Узел

TAF: UUWW 211950Z 2121/2221 28005MPS 9999 SCT020 TX19/2212Z TN10/2203Z TEMPO 2206/2212 32010G15MPS

Метеонаблюдения и прогнозы для более 4000 аэропортов (сводки METAR и TAF).

Имеющиеся станции представлены на карте желтыми и красными точками.

Чтобы увидеть название станции, наведите на нее мышь.

Затем щелкните, чтобы увидеть метеонаблюдения и метеопрогнозы.

Управление картой: чтобы увеличить масштаб, щелкните зеленые кнопки с черным крестиком; чтобы уменьшить масштаб, щелкните зеленую кнопку с тире; для просмотра соседних карт щелкайте зеленые стрелки.


METAR-TAF: